createdAt,value
2022-09-12T07:18:11.906Z,61.97
2022-09-12T07:19:13.273Z,62.66
2022-09-12T07:20:14.821Z,62.65
2022-09-12T07:21:16.216Z,63.12
2022-09-12T07:22:17.566Z,62.48
2022-09-12T07:23:19.132Z,63.69
2022-09-12T07:24:20.591Z,62.69
2022-09-12T07:40:00.343Z,61.01
2022-09-12T07:41:01.818Z,60.77
2022-09-12T07:42:03.363Z,59.74
2022-09-12T07:43:05.001Z,58.99
2022-09-12T07:44:09.196Z,58.66
2022-09-12T07:45:11.251Z,59.14
2022-09-12T07:46:14.195Z,58.91
2022-09-12T07:56:06.124Z,57.09
2022-09-12T07:57:07.548Z,58.16
2022-09-12T07:58:08.880Z,56.39
2022-09-12T07:59:10.254Z,53.75
2022-09-12T08:00:12.105Z,55.69
2022-09-12T08:01:19.340Z,56.31
2022-09-12T08:02:21.566Z,54.49
2022-09-12T08:03:23.019Z,55.19
2022-09-12T08:04:24.550Z,56.02
2022-09-12T08:05:25.929Z,55.13
2022-09-12T08:06:31.399Z,54.58
2022-09-12T08:07:34.039Z,54.57
2022-09-12T08:08:36.410Z,53.24
2022-09-12T08:09:37.839Z,51.26
2022-09-12T08:10:39.328Z,51.20
2022-09-12T08:11:40.657Z,53.04
2022-09-12T08:12:42.078Z,55.61
2022-09-12T08:13:44.875Z,55.10
2022-09-12T08:14:46.605Z,54.34
2022-09-12T08:15:48.011Z,55.22
2022-09-12T08:16:49.402Z,54.59
2022-09-12T08:17:50.754Z,54.61
2022-09-12T08:18:52.100Z,57.22
2022-09-12T08:19:53.729Z,57.29
2022-09-12T08:20:59.525Z,55.57
2022-09-12T08:22:00.862Z,56.97
2022-09-12T08:23:02.271Z,56.54
2022-09-12T08:24:05.960Z,55.01
2022-09-12T08:25:08.620Z,56.50
2022-09-12T08:26:11.864Z,56.08
2022-09-12T08:27:14.745Z,56.66
2022-09-12T08:28:16.453Z,55.17
2022-09-12T08:29:17.969Z,56.49
2022-09-12T08:30:19.308Z,55.10
2022-09-12T08:31:23.087Z,55.01
2022-09-12T08:32:24.749Z,54.75
2022-09-12T08:33:27.308Z,53.10
2022-09-12T08:34:28.684Z,52.91
2022-09-12T08:35:30.196Z,54.17
2022-09-12T08:36:32.480Z,53.32
2022-09-12T08:37:33.860Z,53.95
2022-09-12T08:38:36.534Z,54.00
2022-09-12T08:39:37.887Z,55.18
2022-09-12T08:41:05.347Z,56.50
2022-09-12T08:42:07.250Z,56.96
2022-09-12T08:43:32.874Z,57.21
2022-09-12T08:45:02.218Z,55.98
2022-09-12T08:46:19.997Z,56.25
2022-09-12T08:47:38.849Z,56.99
2022-09-12T08:48:41.579Z,56.73
2022-09-12T08:50:05.036Z,54.96
2022-09-12T08:51:12.346Z,55.01
2022-09-12T08:52:22.184Z,55.40
2022-09-12T08:53:26.009Z,55.21
2022-09-12T08:54:29.434Z,56.56
2022-09-12T08:55:41.148Z,54.76
2022-09-12T08:56:43.373Z,53.90
2022-09-12T08:57:44.710Z,54.15
2022-09-12T08:58:46.391Z,53.16
2022-09-12T08:59:48.350Z,54.13
2022-09-12T09:01:21.284Z,55.58
2022-09-12T09:02:57.595Z,55.83
2022-09-12T09:04:04.679Z,55.54
2022-09-12T09:14:41.790Z,55.27
2022-09-12T09:16:02.118Z,55.58
2022-09-12T09:17:08.666Z,55.46
2022-09-12T09:18:23.870Z,55.30
2022-09-12T09:19:34.235Z,55.13
2022-09-12T09:21:07.892Z,55.10
2022-09-12T09:22:23.483Z,53.81
2022-09-12T09:23:33.915Z,53.83
2022-09-12T09:31:41.325Z,54.49
2022-09-12T09:32:47.599Z,54.38
2022-09-12T09:33:51.514Z,53.33
2022-09-12T09:34:53.180Z,52.76
2022-09-12T09:36:20.098Z,52.97
2022-09-12T09:37:30.034Z,52.13
2022-09-12T09:38:59.822Z,51.96
2022-09-12T09:40:29.089Z,52.46
2022-09-12T09:41:37.347Z,52.65
2022-09-12T09:42:43.812Z,52.56
2022-09-12T09:50:17.029Z,51.07
2022-09-12T09:51:24.750Z,50.75
2022-09-12T09:52:30.454Z,51.60
2022-09-12T09:53:51.667Z,51.31
2022-09-12T09:54:58.533Z,50.09
2022-09-12T09:56:03.697Z,49.04
2022-09-12T09:57:05.233Z,48.33
2022-09-12T09:58:06.743Z,46.98
2022-09-12T09:59:14.760Z,46.22
2022-09-12T10:00:27.104Z,45.74
2022-09-12T10:01:28.803Z,45.87
2022-09-12T10:02:30.206Z,45.82
2022-09-12T10:03:35.911Z,45.85
2022-09-12T10:04:41.841Z,45.50
2022-09-12T10:05:49.383Z,45.91
2022-09-12T10:13:35.506Z,43.37
2022-09-12T10:14:41.857Z,42.32
2022-09-12T10:15:57.597Z,42.52
2022-09-12T10:16:59.476Z,43.31
2022-09-12T10:18:02.846Z,44.04
2022-09-12T10:19:04.299Z,41.77
2022-09-12T10:20:34.668Z,40.33
2022-09-12T10:21:47.583Z,40.15
2022-09-12T10:22:49.552Z,41.44
2022-09-12T10:23:59.941Z,41.42
2022-09-12T10:25:01.742Z,43.10
2022-09-12T10:26:09.498Z,43.59
2022-09-12T10:27:13.601Z,42.89
2022-09-12T10:28:27.744Z,42.92
2022-09-12T10:29:33.301Z,43.30
2022-09-12T10:30:34.961Z,42.16
2022-09-12T10:32:01.229Z,40.49
2022-09-12T10:33:12.753Z,42.40
2022-09-12T10:34:25.265Z,41.22
2022-09-12T10:41:11.683Z,40.24
2022-09-12T10:42:17.518Z,40.10
2022-09-12T10:43:39.557Z,38.57
2022-09-12T10:44:54.026Z,38.54
2022-09-12T10:46:19.695Z,39.17
2022-09-12T10:47:28.083Z,40.11
2022-09-12T10:48:31.646Z,39.86
2022-09-12T10:49:39.974Z,39.06
2022-09-12T10:50:43.052Z,38.41
2022-09-12T10:51:44.413Z,39.31
2022-09-12T10:52:45.825Z,40.75
2022-09-12T10:53:47.355Z,40.48
2022-09-12T10:54:50.235Z,40.10
2022-09-12T10:56:14.260Z,40.78
2022-09-12T10:57:46.002Z,40.13
2022-09-12T10:58:53.667Z,38.32
2022-09-12T11:00:17.821Z,39.08
2022-09-12T11:01:39.587Z,38.67
2022-09-12T11:03:07.012Z,40.02
2022-09-12T11:04:30.421Z,38.17
2022-09-12T11:05:49.978Z,37.74
2022-09-12T11:07:10.316Z,39.35
2022-09-12T11:08:36.622Z,35.94
2022-09-12T11:09:46.006Z,35.57
2022-09-12T11:10:59.605Z,35.99
2022-09-12T11:12:29.872Z,34.78
2022-09-12T11:13:31.265Z,35.07
2022-09-12T11:14:41.543Z,36.95
2022-09-12T11:16:01.149Z,38.64
2022-09-12T11:17:22.886Z,36.48
2022-09-12T11:18:33.206Z,36.63
2022-09-12T11:19:59.448Z,36.81
2022-09-12T11:21:13.671Z,34.19
2022-09-12T11:22:33.617Z,36.17
2022-09-12T11:23:40.744Z,35.71
2022-09-12T11:25:11.925Z,37.52
2022-09-12T11:26:28.945Z,38.04
2022-09-12T11:27:53.532Z,37.42
2022-09-12T11:28:57.781Z,37.44
2022-09-12T11:30:13.177Z,36.14
2022-09-12T11:31:33.878Z,34.32
2022-09-12T11:32:43.555Z,33.67
2022-09-12T11:33:47.979Z,34.09
2022-09-12T11:35:15.160Z,36.43
2022-09-12T11:36:33.043Z,36.95
2022-09-12T11:38:11.647Z,37.02
2022-09-12T11:39:38.450Z,35.03
2022-09-12T11:40:59.634Z,32.67
2022-09-12T11:48:37.598Z,32.40
2022-09-12T11:49:51.478Z,33.68
2022-09-12T11:50:53.146Z,32.89
2022-09-12T11:52:18.249Z,32.93
2022-09-12T11:53:26.590Z,33.12
2022-09-12T11:54:35.377Z,33.61
2022-09-12T11:55:47.390Z,34.28
2022-09-12T11:56:55.592Z,33.42
2022-09-12T11:58:00.979Z,33.56
2022-09-12T11:59:11.303Z,33.41
2022-09-12T12:00:26.609Z,33.45
2022-09-12T12:07:11.434Z,34.46
2022-09-12T12:08:14.522Z,35.01
2022-09-12T12:09:16.199Z,35.44
2022-09-12T12:10:36.780Z,35.96
2022-09-12T12:11:43.554Z,34.88
2022-09-12T12:12:45.032Z,35.35
2022-09-12T12:14:01.690Z,35.60
2022-09-12T12:15:03.359Z,34.95
2022-09-12T12:16:11.603Z,35.80
2022-09-12T12:22:34.202Z,32.32
2022-09-12T12:23:36.472Z,32.51
2022-09-12T12:24:55.033Z,31.47
2022-09-12T12:25:58.750Z,31.24
2022-09-12T12:27:03.237Z,31.41
2022-09-12T12:28:06.348Z,32.45
2022-09-12T12:29:16.750Z,31.58
2022-09-12T12:30:30.368Z,30.82
2022-09-12T12:36:40.396Z,35.13
2022-09-12T12:37:41.737Z,35.29
2022-09-12T12:38:43.504Z,34.04
2022-09-12T12:39:45.916Z,31.88
2022-09-12T12:40:47.459Z,32.16
2022-09-12T12:41:48.803Z,31.96
2022-09-12T12:43:01.456Z,32.83
2022-09-12T12:44:41.599Z,33.21
2022-09-12T12:45:48.303Z,31.85
2022-09-12T12:52:03.390Z,34.45
2022-09-12T12:53:27.756Z,35.42
2022-09-12T12:54:41.266Z,34.16
2022-09-12T12:55:42.548Z,34.67
2022-09-12T12:56:44.136Z,35.18
2022-09-12T12:57:52.440Z,35.22
2022-09-12T12:59:00.500Z,34.10
2022-09-12T13:04:55.976Z,32.30
2022-09-12T13:06:07.216Z,30.99
2022-09-12T13:07:12.198Z,31.01
2022-09-12T13:08:19.782Z,31.08
2022-09-12T13:09:21.468Z,31.64
2022-09-12T13:10:29.242Z,32.31
2022-09-12T13:11:35.918Z,32.31
2022-09-12T13:17:44.010Z,31.36
2022-09-12T13:18:49.068Z,31.19
2022-09-12T13:20:16.934Z,30.94
2022-09-12T13:21:21.699Z,30.20
2022-09-12T13:22:24.690Z,29.68
2022-09-12T13:23:29.295Z,30.17
2022-09-12T13:29:29.390Z,30.53
2022-09-12T13:30:33.617Z,30.65
2022-09-12T13:31:35.024Z,30.15
2022-09-12T13:32:36.369Z,30.59
2022-09-12T13:33:48.280Z,30.96
2022-09-12T13:35:11.120Z,31.27
2022-09-12T13:41:07.978Z,29.92
2022-09-12T13:42:37.645Z,31.38
2022-09-12T13:43:47.293Z,30.12
2022-09-12T13:44:52.886Z,31.10
2022-09-12T13:45:54.330Z,30.76
2022-09-12T13:47:00.806Z,30.72
2022-09-12T13:52:59.617Z,31.41
2022-09-12T13:54:05.113Z,31.69
2022-09-12T13:55:24.555Z,31.75
2022-09-12T13:56:26.234Z,30.99
2022-09-12T13:57:31.084Z,30.97
2022-09-12T13:58:36.877Z,29.93
2022-09-12T14:04:46.406Z,29.79
2022-09-12T14:05:57.348Z,30.02
2022-09-12T14:07:02.008Z,29.10
2022-09-12T14:08:08.542Z,30.37
2022-09-12T14:09:15.135Z,29.41
2022-09-12T14:10:22.723Z,29.66
2022-09-12T14:11:27.749Z,29.43
2022-09-12T14:12:37.059Z,29.81
2022-09-12T14:13:39.213Z,29.49
2022-09-12T14:14:43.915Z,29.22
2022-09-12T14:15:48.428Z,27.93
2022-09-12T14:16:50.230Z,28.20
2022-09-12T14:18:01.346Z,28.62
2022-09-12T14:19:02.769Z,29.67
2022-09-12T14:20:14.312Z,29.92
2022-09-12T14:21:36.897Z,31.34
2022-09-12T14:22:38.768Z,31.50
2022-09-12T14:28:31.097Z,30.56
2022-09-12T14:29:34.612Z,29.95
2022-09-12T14:30:37.652Z,29.84
2022-09-12T14:31:39.432Z,30.35
2022-09-12T14:32:40.808Z,31.02
2022-09-12T14:33:56.800Z,29.80
2022-09-12T14:35:20.383Z,30.00
2022-09-12T14:36:24.632Z,29.90
2022-09-12T14:42:13.144Z,29.51
2022-09-12T14:43:19.441Z,29.96
2022-09-12T14:44:26.895Z,29.08
2022-09-12T14:45:30.875Z,28.83
2022-09-12T14:46:35.491Z,28.90
2022-09-12T14:47:40.657Z,28.65
2022-09-12T14:49:10.416Z,28.40
2022-09-12T14:55:19.811Z,28.38
2022-09-12T14:56:23.047Z,28.80
2022-09-12T14:57:39.386Z,28.57
2022-09-12T14:58:42.187Z,29.72
2022-09-12T14:59:43.562Z,30.41
2022-09-12T15:01:01.838Z,30.66
2022-09-12T15:06:51.163Z,30.63
2022-09-12T15:07:58.471Z,30.19
2022-09-12T15:09:11.880Z,28.85
2022-09-12T15:10:29.245Z,28.42
2022-09-12T15:11:30.663Z,28.51
2022-09-12T15:12:32.021Z,28.62
2022-09-12T15:13:40.594Z,28.21
2022-09-12T15:14:41.932Z,28.41
2022-09-12T15:15:46.430Z,28.11
2022-09-12T15:16:47.792Z,28.07
2022-09-12T15:17:49.116Z,27.67
2022-09-12T15:18:50.430Z,27.42
2022-09-12T15:19:51.750Z,27.39
2022-09-12T15:20:57.800Z,27.28
2022-09-12T15:21:59.377Z,28.09
2022-09-12T15:23:00.739Z,28.21
2022-09-12T15:24:02.518Z,27.97
2022-09-12T15:25:04.864Z,28.36
2022-09-12T15:26:07.498Z,29.45
2022-09-12T15:27:12.459Z,30.16
2022-09-12T15:28:20.301Z,30.71
2022-09-12T15:29:21.770Z,31.00
2022-09-12T15:30:23.085Z,30.66
2022-09-12T15:31:29.734Z,30.23
2022-09-12T15:32:31.340Z,31.10
2022-09-12T15:33:32.869Z,31.42
2022-09-12T15:34:34.196Z,31.91
2022-09-12T15:35:35.562Z,31.98
2022-09-12T15:36:36.970Z,32.21
2022-09-12T15:37:38.431Z,32.45
2022-09-12T15:38:39.753Z,31.23
2022-09-12T15:39:41.170Z,31.23
2022-09-12T15:40:42.873Z,31.31
2022-09-12T15:41:44.230Z,30.66
2022-09-12T15:42:45.632Z,30.41
2022-09-12T15:43:47.634Z,29.66
2022-09-12T15:44:49.230Z,29.72
2022-09-12T15:45:51.764Z,30.01
2022-09-12T15:46:53.170Z,29.99
2022-09-12T15:47:55.083Z,30.87
2022-09-12T15:48:56.667Z,31.07
2022-09-12T15:49:58.002Z,30.40
2022-09-12T15:51:04.513Z,30.98
2022-09-12T15:52:07.469Z,31.70
2022-09-12T15:53:15.151Z,31.42
2022-09-12T15:54:18.056Z,31.36
2022-09-12T15:55:23.769Z,31.68
2022-09-12T15:56:26.178Z,32.05
2022-09-12T15:57:27.497Z,32.64
2022-09-12T15:58:29.594Z,33.63
2022-09-12T15:59:31.093Z,33.32
2022-09-12T16:00:32.441Z,32.80
2022-09-12T16:01:33.881Z,32.80
2022-09-12T16:02:35.496Z,34.57
2022-09-12T16:03:37.006Z,34.89
2022-09-12T16:04:38.554Z,35.03
2022-09-12T16:05:40.082Z,34.61
2022-09-12T16:06:41.417Z,34.24
2022-09-12T16:07:44.233Z,34.71
2022-09-12T16:08:46.076Z,35.40
2022-09-12T16:09:47.716Z,35.15
2022-09-12T16:10:54.129Z,35.19
2022-09-12T16:11:55.495Z,35.44
2022-09-12T16:12:57.505Z,35.40
2022-09-12T16:13:58.940Z,35.31
2022-09-12T16:15:00.386Z,35.73
2022-09-12T16:16:02.063Z,35.34
2022-09-12T16:17:03.565Z,35.19
2022-09-12T16:18:04.898Z,35.57
2022-09-12T16:19:06.644Z,36.11
2022-09-12T16:20:08.972Z,36.20
2022-09-12T16:21:14.917Z,36.04
2022-09-12T16:22:16.936Z,36.33
2022-09-12T16:23:18.518Z,35.97
2022-09-12T16:24:19.960Z,36.51
2022-09-12T16:42:26.040Z,38.13
2022-09-12T16:43:27.399Z,38.36
2022-09-12T16:44:34.982Z,38.63
2022-09-12T16:45:36.456Z,38.96
2022-09-12T16:46:38.020Z,38.88
2022-09-12T17:00:16.756Z,41.75
2022-09-12T17:01:23.659Z,42.24
2022-09-12T17:02:25.489Z,41.96
2022-09-12T17:03:27.437Z,42.58
2022-09-12T17:04:28.865Z,42.14
2022-09-12T17:05:30.485Z,40.73
2022-09-12T17:06:33.799Z,40.91
